Flight Track Log - Related Links

Times and Time Zones

All times are in EDT time to prevent confusion due to time zone crossing. See the UAL4295 flight status page for this flight to view local times or setup timezone preferences in your user account.

Time Position Orientation Groundspeed Altitude Reporting Facility
EDT Latitude Longitude Course Direction KTS km/h meters Rate Location/Type
Wed 20:16:16 40.6667 -74.1833 207° Southwest 171 317 366  Level New York TRACON
Wed 20:17:10 40.6167 -74.2167 207° Southwest 216 401 945 770 Climbing New York TRACON
Wed 20:18:10 40.6500 -74.3000 298° West 234 433 1,829 808 Climbing New York TRACON
Wed 20:19:10 40.6833 -74.3833 298° West 245 454 2,560 732 Climbing New York TRACON
Wed 20:20:10 40.7000 -74.4667 285° West 257 476 3,292 536 Climbing New York TRACON
Wed 20:22:04 40.7739 -74.6211 302° West 302 560 4,115 397 Climbing New York Center
Wed 20:23:05 40.8181 -74.7333 298° West 314 581 4,450 384 Climbing New York Center
Wed 20:24:03 40.8564 -74.8342 297° West 333 616 4,877 434 Climbing New York Center
Wed 20:25:03 40.8833 -74.9539 287° West 340 629 5,304 461 Climbing New York Center
Wed 20:26:02 40.8447 -75.0475 241° Southwest 299 554 5,791 472 Climbing New York Center
Wed 20:27:03 40.7994 -75.1433 238° Southwest 293 542 6,248 465 Climbing New York Center
Wed 20:28:04 40.7825 -75.2600 259° West 309 573 6,736 435 Climbing New York Center
Wed 20:29:05 40.7633 -75.3794 258° West 326 604 7,132 384 Climbing New York Center
Wed 20:30:03 40.7278 -75.4892 247° West 326 604 7,498 396 Climbing New York Center
Wed 20:31:05 40.6881 -75.5961 244° Southwest 332 615 7,925 442 Climbing New York Center
Wed 20:32:03 40.6481 -75.7028 244° Southwest 332 615 8,382 461 Climbing New York Center
Wed 20:33:04 40.6106 -75.8039 244° Southwest 322 597 8,839 390 Climbing New York Center
Wed 20:34:05 40.5708 -75.9019 242° Southwest 309 573 9,174 335 Climbing New York Center
Wed 20:35:04 40.5242 -76.0158 242° Southwest 314 581 9,510 326 Climbing New York Center
Wed 20:36:03 40.4839 -76.1247 244° Southwest 319 591 9,815 292 Climbing New York Center
Wed 20:37:03 40.4439 -76.2281 243° Southwest 319 591 10,089 272 Climbing New York Center
Wed 20:38:04 40.4056 -76.3314 244° Southwest 319 591 10,363 137 Climbing New York Center
Wed 20:39:03 40.3631 -76.4397 243° Southwest 319 591 10,363  Level New York Center
Wed 20:40:04 40.3281 -76.5567 249° West 334 618 10,363  Level New York Center
Wed 20:41:02 40.2992 -76.6794 253° West 347 642 10,363  Level New York Center
Wed 20:42:03 40.2681 -76.7992 251° West 352 652 10,363  Level New York Center
Wed 20:43:02 40.2392 -76.9136 252° West 352 652 10,363  Level New York Center
Wed 20:44:03 40.2100 -77.0308 252° West 347 642 10,363  Level New York Center
Wed 20:45:04 40.1892 -77.1483 257° West 342 634 10,363  Level New York Center
Wed 20:46:03 40.1844 -77.2731 267° West 342 634 10,363  Level New York Center
Wed 20:47:38 40.1828 -77.4550 269° West 332 615 10,363  Level Cleveland Center
Wed 20:48:38 40.1797 -77.5747 268° West 332 615 10,363  Level Cleveland Center
Wed 20:49:38 40.1744 -77.7000 267° West 332 615 10,363  Level Cleveland Center
Wed 20:50:38 40.1711 -77.8169 268° West 332 615 10,363  Level Cleveland Center
Wed 20:51:38 40.1636 -77.9369 265° West 332 615 10,363  Level Cleveland Center
Wed 20:52:38 40.1664 -78.0564 272° West 332 615 10,363  Level Cleveland Center
Wed 20:53:38 40.1667 -78.1731 270° West 327 605 10,363  Level Cleveland Center
Wed 20:54:38 40.1714 -78.2925 273° West 327 605 10,363  Level Cleveland Center
Wed 20:55:38 40.1714 -78.4094 270° West 327 605 10,363  Level Cleveland Center
Wed 20:56:38 40.1758 -78.5261 273° West 327 605 10,363  Level Cleveland Center
Wed 20:57:38 40.1778 -78.6403 271° West 327 605 10,363  Level Cleveland Center
Wed 20:58:38 40.1800 -78.7678 271° West 327 605 10,363  Level Cleveland Center
Wed 20:59:38 40.1817 -78.8847 271° West 327 605 10,363  Level Cleveland Center
Wed 21:00:38 40.1833 -79.0014 271° West 327 605 10,363  Level Cleveland Center
Wed 21:01:38 40.1847 -79.1128 271° West 327 605 10,363  Level Cleveland Center
Wed 21:02:38 40.1864 -79.2269 271° West 327 605 10,363  Level Cleveland Center
Wed 21:03:38 40.1894 -79.3275 272° West 327 605 10,363  Level Cleveland Center
Wed 21:04:38 40.1908 -79.4417 271° West 321 594 10,363  Level Cleveland Center
Wed 21:05:38 40.1917 -79.5531 271° West 316 586 10,363  Level Cleveland Center
Wed 21:06:38 40.1947 -79.6617 272° West 310 575 10,363  Level Cleveland Center
Wed 21:07:38 40.1936 -79.7706 269° West 310 575 10,363  Level Cleveland Center
Wed 21:08:38 40.1942 -79.8792 270° West 310 575 10,363  Level Cleveland Center
Wed 21:09:38 40.1947 -79.9850 270° West 305 565 10,363  Level Cleveland Center
Wed 21:10:38 40.1911 -80.1019 268° West 305 565 10,363  Level Cleveland Center
Wed 21:11:38 40.1936 -80.2081 272° West 299 554 10,363  Level Cleveland Center
Wed 21:12:38 40.1939 -80.3139 270° West 294 544 10,363  Level Cleveland Center
Wed 21:13:38 40.1983 -80.4144 273° West 288 533 10,363  Level Cleveland Center
Wed 21:14:38 40.1983 -80.5178 270° West 288 533 10,363  Level Cleveland Center
Wed 21:15:38 40.1986 -80.6239 270° West 288 533 10,363  Level Cleveland Center
Wed 21:16:38 40.1964 -80.7244 268° West 288 533 10,363  Level Cleveland Center
Wed 21:19:09 40.1931 -80.9742 269° West 281 520 10,363  Level Indianapolis Center
Wed 21:20:11 40.1925 -81.0778 270° West 283 525 10,363  Level Indianapolis Center
Wed 21:21:12 40.1925 -81.1803 270° West 279 517 10,363  Level Indianapolis Center
Wed 21:22:13 40.1917 -81.2822 269° West 279 517 10,363  Level Indianapolis Center
Wed 21:23:14 40.1919 -81.3839 270° West 276 512 10,363  Level Indianapolis Center
Wed 21:24:16 40.1917 -81.4872 270° West 279 517 10,363  Level Indianapolis Center
Wed 21:25:17 40.1897 -81.5894 269° West 279 517 10,363  Level Indianapolis Center
Wed 21:26:18 40.1886 -81.7067 269° West 274 507 10,363  Level Indianapolis Center
Wed 21:27:19 40.1875 -81.8017 269° West 275 509 10,363  Level Indianapolis Center
Wed 21:28:21 40.1869 -81.9042 270° West 277 513 10,363  Level Indianapolis Center
Wed 21:29:22 40.1856 -82.0069 269° West 281 520 10,363  Level Indianapolis Center
Wed 21:30:23 40.1856 -82.1092 270° West 279 517 10,363  Level Indianapolis Center
Wed 21:31:25 40.1836 -82.2119 269° West 280 518 10,363  Level Indianapolis Center
Wed 21:32:26 40.1819 -82.3150 269° West 282 523 10,363  Level Indianapolis Center
Wed 21:33:27 40.1803 -82.4164 269° West 278 515 10,363  Level Indianapolis Center
Wed 21:34:29 40.1789 -82.5194 269° West 281 520 10,363  Level Indianapolis Center
Wed 21:35:30 40.1767 -82.6228 268° West 281 520 10,363  Level Indianapolis Center
Wed 21:36:31 40.1753 -82.7428 269° West 282 523 10,363  Level Indianapolis Center
Wed 21:37:33 40.1731 -82.8458 268° West 282 523 10,363  Level Indianapolis Center
Wed 21:38:34 40.1714 -82.9489 269° West 282 523 10,363  Level Indianapolis Center
Wed 21:39:35 40.1683 -83.0522 268° West 283 525 10,363  Level Indianapolis Center
Wed 21:40:37 40.1667 -83.1558 269° West 284 526 10,363  Level Indianapolis Center
Wed 21:41:38 40.1642 -83.2586 268° West 284 526 10,363  Level Indianapolis Center
Wed 21:42:40 40.1617 -83.3617 268° West 282 523 10,363  Level Indianapolis Center
Wed 21:43:41 40.1597 -83.4647 269° West 284 526 10,363  Level Indianapolis Center
Wed 21:44:42 40.1572 -83.5683 268° West 285 528 10,363  Level Indianapolis Center
Wed 21:45:44 40.1536 -83.6708 267° West 283 525 10,363  Level Indianapolis Center
Wed 21:46:45 40.1511 -83.7911 268° West 283 525 10,363  Level Indianapolis Center
Wed 21:47:47 40.1475 -83.8961 267° West 289 536 10,363  Level Indianapolis Center
Wed 21:48:48 40.1447 -83.9997 268° West 286 529 10,363  Level Indianapolis Center
Wed 21:49:49 40.1422 -84.1053 268° West 287 531 10,363  Level Indianapolis Center
Wed 21:50:51 40.1386 -84.2106 267° West 286 529 10,363  Level Indianapolis Center
Wed 21:51:52 40.1356 -84.3169 268° West 288 533 10,363  Level Indianapolis Center
Wed 21:52:53 40.1331 -84.4242 268° West 292 541 10,363  Level Indianapolis Center
Wed 21:53:55 40.1292 -84.5311 267° West 294 544 10,363  Level Indianapolis Center
Wed 21:54:56 40.1239 -84.6381 266° West 292 541 10,363  Level Indianapolis Center
Wed 21:55:57 40.1194 -84.7458 267° West 295 546 10,363  Level Indianapolis Center
Wed 21:56:59 40.1153 -84.8522 267° West 293 542 10,363  Level Indianapolis Center
Wed 21:58:00 40.1125 -84.9625 268° West 291 539 10,363  Level Indianapolis Center
Wed 21:59:01 40.1078 -85.0683 267° West 291 539 10,363  Level Indianapolis Center
Wed 22:00:02 40.1042 -85.1747 267° West 292 541 10,363  Level Indianapolis Center
Wed 22:01:03 40.0994 -85.2975 267° West 289 536 10,363  Level Indianapolis Center
Wed 22:01:40 40.0964 -85.3503 266° West 290 538 10,363  Level Indianapolis Center
Wed 22:02:41 40.0922 -85.4575 267° West 293 542 10,363  Level Indianapolis Center
Wed 22:03:42 40.0878 -85.5639 267° West 291 539 10,363  Level Indianapolis Center
Wed 22:04:44 40.0833 -85.6708 267° West 294 544 10,363  Level Indianapolis Center
Wed 22:05:45 40.0778 -85.7961 267° West 295 546 10,363  Level Indianapolis Center
Wed 22:06:46 40.0731 -85.9036 267° West 296 549 10,363  Level Indianapolis Center
Wed 22:07:47 40.0681 -86.0114 267° West 297 550 10,363  Level Indianapolis Center
Wed 22:08:48 40.0628 -86.1181 266° West 295 546 10,363  Level Indianapolis Center
Wed 22:09:45 40.0592 -86.2081 267° West 299 554 10,363  Level Chicago Center
Wed 22:10:47 40.0536 -86.3342 267° West 299 554 10,363  Level Chicago Center
Wed 22:11:52 40.0469 -86.4419 265° West 299 554 10,363  Level Indianapolis Center
Wed 22:12:53 40.0419 -86.5514 267° West 302 560 10,363  Level Indianapolis Center
Wed 22:13:54 40.0364 -86.6608 266° West 302 560 10,363  Level Indianapolis Center
Wed 22:14:56 40.0308 -86.7697 266° West 302 560 10,363  Level Indianapolis Center
Wed 22:15:57 40.0239 -86.8975 266° West 300 555 10,363  Level Indianapolis Center
Wed 22:16:58 40.0178 -87.0072 266° West 302 560 10,363  Level Indianapolis Center
Wed 22:17:59 40.0108 -87.1164 265° West 301 557 10,363  Level Indianapolis Center
Wed 22:19:13 40.0039 -87.2456 266° West 305 565 10,363  Level Indianapolis Center
Wed 22:20:14 39.9978 -87.3561 266° West 304 563 10,363  Level Indianapolis Center
Wed 22:21:15 39.9908 -87.4669 265° West 305 565 10,363  Level Indianapolis Center
Wed 22:22:16 39.9853 -87.5792 266° West 308 570 10,363  Level Indianapolis Center
Wed 22:23:17 39.9781 -87.6908 265° West 308 570 10,363  Level Indianapolis Center
Wed 22:24:18 39.9708 -87.8025 265° West 307 568 10,363  Level Indianapolis Center
Wed 22:25:18 39.9653 -87.9156 266° West 309 573 10,363  Level Chicago Center
Wed 22:26:20 39.9586 -88.0275 266° West 309 573 10,363  Level Chicago Center
Wed 22:27:21 39.9514 -88.1400 265° West 309 573 10,363  Level Chicago Center
Wed 22:29:13 39.9353 -88.3597 265° West 311 576 10,363  Level Kansas City Center
Wed 22:30:14 39.9269 -88.4711 264° West 309 573 10,363  Level Kansas City Center
Wed 22:31:15 39.9208 -88.5853 266° West 313 579 10,363  Level Kansas City Center
Wed 22:32:16 39.9125 -88.6986 265° West 313 579 10,363  Level Kansas City Center
Wed 22:33:17 39.9047 -88.8119 265° West 314 581 10,363  Level Kansas City Center
Wed 22:34:18 39.8953 -88.9258 264° West 315 583 10,363  Level Kansas City Center
Wed 22:35:21 39.8872 -89.0408 265° West 317 587 10,363  Level Kansas City Center
Wed 22:36:22 39.8800 -89.1556 265° West 318 589 10,363  Level Kansas City Center
Wed 22:37:22 39.8706 -89.2714 264° West 320 592 10,363  Level Kansas City Center
Wed 22:38:23 39.8622 -89.3864 265° West 319 591 10,363  Level Kansas City Center
Wed 22:39:23 39.8533 -89.5003 264° West 318 589 10,363  Level Kansas City Center
Wed 22:40:27 39.8442 -89.6147 264° West 317 587 10,363  Level Kansas City Center
Wed 22:41:25 39.8394 -89.7542 268° West 319 591 10,363  Level Kansas City Center
Wed 22:42:29 39.8411 -89.8725 271° West 323 599 10,363  Level Kansas City Center
Wed 22:43:30 39.8431 -89.9903 271° West 325 602 10,363  Level Kansas City Center
Wed 22:44:31 39.8442 -90.1094 271° West 327 605 10,363  Level Kansas City Center
Wed 22:45:31 39.8450 -90.2281 271° West 328 607 10,363  Level Kansas City Center
Wed 22:46:32 39.8458 -90.3486 271° West 330 612 10,363  Level Kansas City Center
Wed 22:47:32 39.8464 -90.4697 270° West 333 616 10,363  Level Kansas City Center
Wed 22:48:34 39.8472 -90.5922 271° West 335 621 10,363  Level Kansas City Center
Wed 22:49:34 39.8472 -90.7131 270° West 335 621 10,363  Level Kansas City Center
Wed 22:50:38 39.8475 -90.8342 270° West 335 621 10,363  Level Kansas City Center
Wed 22:51:38 39.8486 -90.9717 271° West 337 624 10,363  Level Kansas City Center
Wed 22:52:39 39.8483 -91.0939 270° West 339 628 10,363  Level Kansas City Center
Wed 22:53:40 39.8483 -91.2153 270° West 340 629 10,363  Level Kansas City Center
Wed 22:54:40 39.8442 -91.3381 268° West 341 631 10,363  Level Kansas City Center
Wed 22:55:44 39.8339 -91.4606 264° West 342 634 10,363  Level Kansas City Center
Wed 22:56:44 39.8253 -91.5833 265° West 343 636 10,363  Level Kansas City Center
Wed 22:57:45 39.8156 -91.7050 264° West 340 629 10,363  Level Kansas City Center
Wed 22:58:46 39.8069 -91.8261 265° West 340 629 10,363  Level Kansas City Center
Wed 22:59:47 39.7969 -91.9694 265° West 337 624 10,363 -135 Level Kansas City Center
Wed 23:00:48 39.7869 -92.0919 264° West 340 629 10,089 -302 Descending Kansas City Center
Wed 23:01:48 39.7769 -92.2161 264° West 344 637 9,754 -317 Descending Kansas City Center
Wed 23:02:49 39.7667 -92.3406 264° West 346 641 9,449 -310 Descending Kansas City Center
Wed 23:03:52 39.7569 -92.4653 264° West 348 644 9,114 -325 Descending Kansas City Center
Wed 23:04:53 39.7461 -92.5897 264° West 347 642 8,778 -317 Descending Kansas City Center
Wed 23:05:53 39.7350 -92.7144 263° West 349 647 8,473 -333 Descending Kansas City Center
Wed 23:06:54 39.7250 -92.8419 264° West 352 652 8,108 -408 Descending Kansas City Center
Wed 23:07:54 39.7125 -92.9686 263° West 355 658 7,650 -438 Descending Kansas City Center
Wed 23:08:55 39.7019 -93.1000 264° West 363 673 7,224 -435 Descending Kansas City Center
Wed 23:09:56 39.6897 -93.2314 263° West 368 681 6,767 -539 Descending Kansas City Center
Wed 23:10:57 39.6769 -93.3819 264° West 356 660 6,126 -619 Descending Kansas City Center
Wed 23:12:00 39.6647 -93.5022 263° West 348 644 5,486 -595 Descending Kansas City Center
Wed 23:13:00 39.6558 -93.6122 264° West 312 578 4,907 -589 Descending Kansas City Center
Wed 23:14:01 39.6458 -93.7169 263° West 296 549 4,298 -565 Descending Kansas City Center
Wed 23:15:03 39.6358 -93.8156 263° West 287 531 3,749 -443 Descending Kansas City Center
Wed 23:16:05 39.6150 -93.9208 256° West 269 499 3,383 -333 Descending Kansas City Center
Wed 23:17:04 39.5989 -94.0094 257° West 265 491 3,078 -197 Descending Kansas City Center
Wed 23:18:06 39.5822 -94.0986 256° West 264 489 2,987 -208 Descending Kansas City Center
Wed 23:19:07 39.5644 -94.1906 256° West 236 438 2,652 -327 Descending Kansas City Center
Wed 23:20:09 39.5497 -94.2703 257° West 235 435 2,316 -297 Descending Kansas City Center
Wed 23:21:10 39.5353 -94.3447 256° West 225 417 2,042 -242 Descending Kansas City Center
Wed 23:22:10 39.5203 -94.4294 257° West 217 402 1,829 -181 Descending Kansas City Center
Wed 23:23:11 39.5050 -94.5047 255° West 224 415 1,676 -257 Descending Kansas City Center
Wed 23:24:11 39.4900 -94.5867 257° West 210 389 1,311 -315 Descending Kansas City Center
Wed 23:25:13 39.4667 -94.6408 241° Southwest 185 343 1,036 -265 Descending Kansas City Center

Login

Don't have an account? Register now (free) for customized features, flight alerts, and more!